首页
METAR-TAF:

METAR-TAF

机场 :

开罗, 埃及

開羅國際機場

纬度: 30-08N, 经度: 031-24E, 海拔: 64米

当前天气观测

该预报发布于16分钟前的01:30 UTC
风速12节,风向西
温度 13°C
湿度 58%
气压 1014 hPa
能見度: 6000
少量云层高于2500英尺
散云层高于7000英尺

METAR: HECA 190130Z 27012KT 6000 FEW025 SCT070 13/05 Q1014 NOSIG

时间: 03:46 (01:46 UTC)

预报

该预报发布于2小时和46分钟前的23:00 UTC
预报有效从19日的 00点(UTC)到 20日的 06点(UTC)
风速12节,风向西,有时为25节阵风
能見度: 6000
散云层高于2500英尺
短暂存在
从 19日的 00点(UTC)到 19日的 06点(UTC)
能見度: 4000
扬沙
短暂存在
从 19日的 00点(UTC)到 19日的 03点(UTC)
能見度: 2000
成为
从 19日的 09点(UTC)到 19日的 11点(UTC)
风速12节,风向西北
能见度10公里或以上
少量云层高于2500英尺

TAF: HECA 182300Z 1900/2006 27012G25KT 6000 SCT025 TEMPO 1900/1906 4000 SA TEMPO 1900/1903 2000 BECMG 1909/1911 31012KT 9999 FEW025

超过4000个机场的气象观测和天气预报(METAR&TAF报告)。

可查询的气象台以黄色和红色小点在地图上表示。

将鼠标移到小点上方,可查看气象台名称。

然后点击查看天气观测和预报。

如需切换地图:点击带黑十字的绿色按钮放大地图;点击带横线的绿色按钮缩小地图;或者点击绿色箭头查看邻近地区的地图。


METAR-TAF: